Pacific Dawn — 2AGH7 — position and weather

sailwx.info

Track history (hours):
 
Tides and Currents Weather Stations Pressure Air Temp Water Temp Dewpoint Dewpoint Depression Visibility Wind Speed Wind Dir Waves Ship Positions

Pacific Dawn

Last reported at 2018-Jun-24 17:00 UTC. Time now 2018-Jun-24 22:31 UTC.
Position S 23°18' E 163°30'.

Length 245 m; draft 8.3 m.

Type: Passenger vessel. MMSI: 235059368.

Wind from 200 at 3 knots

Barometer 1019.2 mb
Air temperature 20.0 ° C
Visibility: greater than 10.8 NM
Dewpoint 14.9 ° C
Water temperature 23.0 ° C

Date/timePositionNaut miles runAvg speedWind from/ knotsBaromVisibWave heightAir tempDewpointWater temp
2018-Jun-24 17:00S 23°18' E 163°30'52017.9 200 / 31019.210.8 20.014.923.0
2018-Jun-23 12:00S 26°12' E 154°30'6824.1 180 / 121019.610.8 19.013.8
2018-Jun-23 09:10S 26°39' E 153°20'518.0
2018-Jun-23 08:52S 26°41' E 153°15'911.8
2018-Jun-23 08:08S 26°49' E 153°10'212.9
2018-Jun-23 07:59S 26°50' E 153°09'816.3
2018-Jun-23 07:30S 26°57' E 153°13'815.6
2018-Jun-23 06:58S 27°04' E 153°18'715.6
2018-Jun-23 06:30S 27°11' E 153°21'815.6
2018-Jun-23 06:00S 27°17' E 153°15'713.5
2018-Jun-23 05:31S 27°22' E 153°10'4 7.4
2018-Jun-23 04:56S 27°26' E 153°08'3 7.1
2018-Jun-23 04:30S 27°27' E 153°05'1 0.1
2018-Jun-22 20:27S 27°26' E 153°04'0 0.0
2018-Jun-22 20:00S 27°26' E 153°04'0 0.2
2018-Jun-22 19:26S 27°27' E 153°04'3 6.2
2018-Jun-22 18:59S 27°26' E 153°07'3 6.7
2018-Jun-22 18:30S 27°23' E 153°09'611.0
2018-Jun-22 18:00S 27°18' E 153°13'816.0
2018-Jun-22 17:31S 27°14' E 153°20'916.3
2018-Jun-22 16:58S 27°05' E 153°19'716.1
2018-Jun-22 16:30S 26°59' E 153°14'916.9
2018-Jun-22 16:00S 26°52' E 153°09'1013.2
2018-Jun-22 15:15S 26°42' E 153°12'27017.7
2018-Jun-22 00:00S 22°12' E 153°06'10617.6 100 / 281020.910.8 21.014.224.0
2018-Jun-21 18:00S 20°30' E 152°36'   120 / 281013.410.8 22.013.425.0
2018-Jun-18 12:00S 19°00' E 147°18'56711.0 160 / 131017.410.8 18.512.2
2018-Jun-16 08:36S 26°42' E 153°15'214.5
2018-Jun-16 08:27S 26°43' E 153°13'610.4
2018-Jun-16 07:54S 26°48' E 153°11'512.7
2018-Jun-16 07:30S 26°54' E 153°11'917.4
2018-Jun-16 07:00S 27°01' E 153°15'816.7
2018-Jun-16 06:30S 27°08' E 153°21'815.9
2018-Jun-16 06:00S 27°15' E 153°18'815.5
2018-Jun-16 05:30S 27°20' E 153°11'510.4
2018-Jun-16 05:00S 27°25' E 153°09'4 7.4
2018-Jun-16 04:30S 27°27' E 153°05'1 0.4
2018-Jun-16 01:21S 27°26' E 153°04'0 0.0
2018-Jun-16 00:57S 27°26' E 153°04'0 0.0
2018-Jun-16 00:27S 27°26' E 153°04'0 0.0
2018-Jun-15 23:51S 27°26' E 153°04'0 0.0
2018-Jun-15 23:22S 27°26' E 153°04'0 0.0
2018-Jun-15 22:12S 27°26' E 153°04'0 0.0
2018-Jun-15 21:54S 27°26' E 153°04'0 0.0
2018-Jun-15 21:28S 27°26' E 153°04'0 0.0
2018-Jun-15 20:57S 27°26' E 153°04'0 0.0
2018-Jun-15 20:27S 27°26' E 153°04'0 0.0
2018-Jun-15 19:38S 27°26' E 153°04'0 0.6
2018-Jun-15 19:30S 27°27' E 153°04'3 5.4
2018-Jun-15 19:00S 27°26' E 153°07'3 6.9
2018-Jun-15 18:31S 27°23' E 153°09'5 9.2
2018-Jun-15 18:00S 27°19' E 153°12'713.9
2018-Jun-15 17:30S 27°15' E 153°18'714.5
2018-Jun-15 17:00S 27°08' E 153°21'714.5
2018-Jun-15 16:30S 27°03' E 153°16'815.5
2018-Jun-15 16:00S 26°56' E 153°12'714.2
2018-Jun-15 15:30S 26°49' E 153°10'714.3
2018-Jun-15 15:00S 26°42' E 153°11'611.1
2018-Jun-15 14:30S 26°38' E 153°15'3915.4
2018-Jun-15 12:00S 26°00' E 153°24'   260 / 101017.110.8 21.517.5
Track history (hours):
 
Tides and Currents Weather Stations Pressure Air Temp Water Temp Dewpoint Dewpoint Depression Visibility Wind Speed Wind Dir Waves Ship Positions

Pacific Dawn

Last reported at 2018-Jun-24 17:00 UTC. Time now 2018-Jun-24 22:31 UTC.
Position S 23°18' E 163°30'.

Length 245 m; draft 8.3 m.

Type: Passenger vessel. MMSI: 235059368.

Wind from 200 at 3 knots

Barometer 1019.2 mb
Air temperature 20.0 ° C
Visibility: greater than 10.8 NM
Dewpoint 14.9 ° C
Water temperature 23.0 ° C

Date/timePositionNaut miles runAvg speedWind from/ knotsBaromVisibWave heightAir tempDewpointWater temp
2018-Jun-24 17:00S 23°18' E 163°30'52017.9 200 / 31019.210.8 20.014.923.0
2018-Jun-23 12:00S 26°12' E 154°30'6824.1 180 / 121019.610.8 19.013.8
2018-Jun-23 09:10S 26°39' E 153°20'518.0
2018-Jun-23 08:52S 26°41' E 153°15'911.8
2018-Jun-23 08:08S 26°49' E 153°10'212.9
2018-Jun-23 07:59S 26°50' E 153°09'816.3
2018-Jun-23 07:30S 26°57' E 153°13'815.6
2018-Jun-23 06:58S 27°04' E 153°18'715.6
2018-Jun-23 06:30S 27°11' E 153°21'815.6
2018-Jun-23 06:00S 27°17' E 153°15'713.5
2018-Jun-23 05:31S 27°22' E 153°10'4 7.4
2018-Jun-23 04:56S 27°26' E 153°08'3 7.1
2018-Jun-23 04:30S 27°27' E 153°05'1 0.1
2018-Jun-22 20:27S 27°26' E 153°04'0 0.0
2018-Jun-22 20:00S 27°26' E 153°04'0 0.2
2018-Jun-22 19:26S 27°27' E 153°04'3 6.2
2018-Jun-22 18:59S 27°26' E 153°07'3 6.7
2018-Jun-22 18:30S 27°23' E 153°09'611.0
2018-Jun-22 18:00S 27°18' E 153°13'816.0
2018-Jun-22 17:31S 27°14' E 153°20'916.3
2018-Jun-22 16:58S 27°05' E 153°19'716.1
2018-Jun-22 16:30S 26°59' E 153°14'916.9
2018-Jun-22 16:00S 26°52' E 153°09'1013.2
2018-Jun-22 15:15S 26°42' E 153°12'27017.7
2018-Jun-22 00:00S 22°12' E 153°06'10617.6 100 / 281020.910.8 21.014.224.0
2018-Jun-21 18:00S 20°30' E 152°36'   120 / 281013.410.8 22.013.425.0
2018-Jun-18 12:00S 19°00' E 147°18'56711.0 160 / 131017.410.8 18.512.2
2018-Jun-16 08:36S 26°42' E 153°15'214.5
2018-Jun-16 08:27S 26°43' E 153°13'610.4
2018-Jun-16 07:54S 26°48' E 153°11'512.7
2018-Jun-16 07:30S 26°54' E 153°11'917.4
2018-Jun-16 07:00S 27°01' E 153°15'816.7
2018-Jun-16 06:30S 27°08' E 153°21'815.9
2018-Jun-16 06:00S 27°15' E 153°18'815.5
2018-Jun-16 05:30S 27°20' E 153°11'510.4
2018-Jun-16 05:00S 27°25' E 153°09'4 7.4
2018-Jun-16 04:30S 27°27' E 153°05'1 0.4
2018-Jun-16 01:21S 27°26' E 153°04'0 0.0
2018-Jun-16 00:57S 27°26' E 153°04'0 0.0
2018-Jun-16 00:27S 27°26' E 153°04'0 0.0
2018-Jun-15 23:51S 27°26' E 153°04'0 0.0
2018-Jun-15 23:22S 27°26' E 153°04'0 0.0
2018-Jun-15 22:12S 27°26' E 153°04'0 0.0
2018-Jun-15 21:54S 27°26' E 153°04'0 0.0
2018-Jun-15 21:28S 27°26' E 153°04'0 0.0
2018-Jun-15 20:57S 27°26' E 153°04'0 0.0
2018-Jun-15 20:27S 27°26' E 153°04'0 0.0
2018-Jun-15 19:38S 27°26' E 153°04'0 0.6
2018-Jun-15 19:30S 27°27' E 153°04'3 5.4
2018-Jun-15 19:00S 27°26' E 153°07'3 6.9
2018-Jun-15 18:31S 27°23' E 153°09'5 9.2
2018-Jun-15 18:00S 27°19' E 153°12'713.9
2018-Jun-15 17:30S 27°15' E 153°18'714.5
2018-Jun-15 17:00S 27°08' E 153°21'714.5
2018-Jun-15 16:30S 27°03' E 153°16'815.5
2018-Jun-15 16:00S 26°56' E 153°12'714.2
2018-Jun-15 15:30S 26°49' E 153°10'714.3
2018-Jun-15 15:00S 26°42' E 153°11'611.1
2018-Jun-15 14:30S 26°38' E 153°15'3915.4
2018-Jun-15 12:00S 26°00' E 153°24'   260 / 101017.110.8 21.517.5

Dump ship's entire track history